Time;durP1;ratioP1;P1;durP2;ratioP2;P2;SDS_P1;SDS_P2;PMS_P1;PMS_P2;Temp;Humidity;BMP_temperature;BMP_pressure;BME280_temperature;BME280_humidity;BME280_pressure;Samples;Min_cycle;Max_cycle;Signal;HPM_P1;HPM_P2
2021/03/19 00:00:35;;;;;;;19.55;9.00;;;;;;;1.88;82.99;98859.94;4998489;28;20095;-74
2021/03/19 00:03:01;;;;;;;15.65;8.93;;;;;;;1.78;83.06;98851.13;5012797;28;20101;-74
2021/03/19 00:05:28;;;;;;;20.23;9.00;;;;;;;1.70;83.82;98854.56;5005188;28;20022;-73
2021/03/19 00:07:56;;;;;;;17.50;10.40;;;;;;;1.73;84.02;98848.94;4997911;28;20029;-74
2021/03/19 00:10:28;;;;;;;19.10;9.77;;;;;;;1.52;84.17;98851.81;5019193;28;20021;-73
2021/03/19 00:12:55;;;;;;;18.45;9.38;;;;;;;1.51;83.81;98858.09;5013056;28;20018;-73
2021/03/19 00:15:23;;;;;;;18.80;10.18;;;;;;;1.54;84.53;98849.81;5012792;28;20033;-73
2021/03/19 00:17:50;;;;;;;22.35;10.32;;;;;;;1.33;84.33;98846.50;5013277;28;20104;-73
2021/03/19 00:20:16;;;;;;;19.70;10.82;;;;;;;1.39;84.57;98853.94;4999963;28;20041;-73
2021/03/19 00:22:41;;;;;;;20.38;10.40;;;;;;;1.28;84.99;98844.28;5009375;28;20022;-73
2021/03/19 00:25:07;;;;;;;22.67;11.25;;;;;;;1.21;85.49;98837.84;5005551;28;20026;-73
2021/03/19 00:27:34;;;;;;;23.50;11.77;;;;;;;1.13;86.26;98837.72;4996472;28;20046;-73
2021/03/19 00:30:00;;;;;;;21.23;11.70;;;;;;;1.03;86.56;98836.88;5014502;28;20053;-73
2021/03/19 00:32:26;;;;;;;21.55;11.02;;;;;;;0.86;86.64;98827.78;4997855;28;20116;-73
2021/03/19 00:34:51;;;;;;;23.10;11.73;;;;;;;1.02;86.72;98840.50;5006524;28;20033;-73
2021/03/19 00:37:16;;;;;;;30.23;12.65;;;;;;;1.00;87.11;98832.69;5007729;28;20029;-73
2021/03/19 00:39:41;;;;;;;22.63;12.15;;;;;;;0.78;87.12;98819.66;5013278;28;20387;-73
2021/03/19 00:42:08;;;;;;;25.52;13.23;;;;;;;0.92;87.43;98843.22;5001396;28;20031;-73
2021/03/19 00:44:34;;;;;;;25.90;11.85;;;;;;;0.88;87.16;98829.31;5002401;28;20030;-73
2021/03/19 00:46:59;;;;;;;26.25;13.00;;;;;;;0.97;87.40;98843.63;5030135;28;20129;-73
2021/03/19 00:49:25;;;;;;;27.48;12.75;;;;;;;0.88;87.76;98844.44;5031603;28;20037;-73
2021/03/19 00:51:50;;;;;;;26.25;12.93;;;;;;;0.79;87.42;98832.00;5022970;28;20042;-74
2021/03/19 00:54:15;;;;;;;35.00;13.75;;;;;;;0.75;87.71;98830.59;5018318;28;20022;-74
2021/03/19 00:56:41;;;;;;;27.67;14.15;;;;;;;0.82;87.57;98843.19;5001531;28;20065;-73
2021/03/19 00:59:07;;;;;;;27.08;12.82;;;;;;;0.76;87.50;98849.09;5008968;28;20403;-73
2021/03/19 01:01:35;;;;;;;28.17;13.70;;;;;;;0.69;88.49;98842.63;5009885;28;20056;-73
2021/03/19 01:04:02;;;;;;;30.57;14.83;;;;;;;0.65;88.27;98823.44;5020965;28;20510;-73
2021/03/19 01:06:27;;;;;;;33.75;15.50;;;;;;;0.64;88.47;98839.56;5005472;28;20323;-74
2021/03/19 01:08:53;;;;;;;28.45;14.07;;;;;;;0.60;88.90;98824.81;5012098;28;20034;-73
2021/03/19 01:11:18;;;;;;;30.67;14.90;;;;;;;0.72;89.05;98831.72;5013610;28;20119;-73
2021/03/19 01:13:44;;;;;;;27.67;15.05;;;;;;;0.58;88.53;98827.66;4992850;28;20038;-74
2021/03/19 01:16:09;;;;;;;29.75;15.32;;;;;;;0.48;89.30;98824.13;5002341;28;20029;-73
2021/03/19 01:18:34;;;;;;;32.97;16.27;;;;;;;0.49;89.63;98830.28;5003938;28;20088;-73
2021/03/19 01:21:00;;;;;;;36.30;16.00;;;;;;;0.60;89.82;98833.69;5012699;28;20041;-73
2021/03/19 01:23:25;;;;;;;33.97;15.13;;;;;;;0.55;89.59;98830.59;5013009;28;20060;-73
2021/03/19 01:25:51;;;;;;;29.88;14.80;;;;;;;0.56;89.88;98831.44;5008074;28;20033;-73
2021/03/19 01:28:17;;;;;;;32.30;16.52;;;;;;;0.60;89.89;98827.50;5007121;28;20026;-74
2021/03/19 01:30:44;;;;;;;32.05;15.90;;;;;;;0.58;89.96;98816.16;5019666;28;20030;-73
2021/03/19 01:33:10;;;;;;;33.72;15.70;;;;;;;0.55;89.88;98819.94;5014479;28;20117;-73
2021/03/19 01:35:37;;;;;;;32.88;16.13;;;;;;;0.58;89.91;98813.50;5014284;28;20124;-73
2021/03/19 01:38:03;;;;;;;27.50;14.82;;;;;;;0.54;89.83;98794.28;5008947;28;20034;-73
2021/03/19 01:40:33;;;;;;;34.53;16.50;;;;;;;0.44;89.83;98801.41;5010719;28;20069;-74
2021/03/19 01:43:09;;;;;;;37.30;16.73;;;;;;;0.43;90.04;98810.41;5019932;28;20034;-73
2021/03/19 01:46:12;;;;;;;36.83;17.33;;;;;;;0.39;90.63;98809.84;5014001;28;20037;-73
2021/03/19 01:49:15;;;;;;;34.55;17.88;;;;;;;0.49;90.73;98812.50;5001778;28;20034;-73
2021/03/19 01:52:18;;;;;;;35.13;16.92;;;;;;;0.45;90.56;98803.13;5000778;28;20022;-74
2021/03/19 01:55:20;;;;;;;38.60;17.80;;;;;;;0.46;90.60;98794.16;5015237;28;20104;-73
2021/03/19 01:58:23;;;;;;;34.08;17.80;;;;;;;0.37;90.33;98793.16;5003307;28;20021;-73
2021/03/19 02:01:26;;;;;;;37.10;18.50;;;;;;;0.35;90.77;98799.59;5015399;28;20080;-73
2021/03/19 02:04:29;;;;;;;37.25;17.52;;;;;;;0.34;90.40;98789.94;4994645;28;20037;-73
2021/03/19 02:07:32;;;;;;;39.33;18.55;;;;;;;0.37;90.54;98795.00;5007116;28;20022;-73
2021/03/19 02:10:35;;;;;;;36.50;18.15;;;;;;;0.34;90.64;98795.25;5018873;28;20112;-73
2021/03/19 02:13:37;;;;;;;41.38;18.67;;;;;;;0.37;91.02;98795.00;5007546;28;20036;-73
2021/03/19 02:16:40;;;;;;;34.85;17.13;;;;;;;0.49;91.18;98788.53;5011070;28;20388;-73
2021/03/19 02:19:43;;;;;;;33.05;16.52;;;;;;;0.51;90.40;98791.06;5007116;28;20426;-74
2021/03/19 02:22:45;;;;;;;36.53;17.85;;;;;;;0.50;90.34;98787.56;4995254;28;20495;-73
2021/03/19 02:25:48;;;;;;;33.72;17.67;;;;;;;0.50;90.73;98800.03;5012385;28;20033;-73
2021/03/19 02:28:51;;;;;;;34.45;16.20;;;;;;;0.56;90.59;98804.81;5003400;28;20484;-73
2021/03/19 02:31:16;;;;;;;32.85;16.40;;;;;;;0.67;90.00;98795.84;5018000;28;20448;-73
2021/03/19 02:33:55;;;;;;;30.88;16.27;;;;;;;0.69;89.62;98793.88;4995209;28;20022;-73
2021/03/19 02:36:25;;;;;;;31.25;16.08;;;;;;;0.68;89.69;98798.34;5018202;28;20038;-74
2021/03/19 02:38:50;;;;;;;26.40;16.05;;;;;;;0.74;89.77;98800.47;4998355;28;20042;-75
2021/03/19 02:41:16;;;;;;;33.58;19.10;;;;;;;0.91;89.03;98798.88;5033199;28;20104;-74
2021/03/19 02:43:42;;;;;;;32.20;17.83;;;;;;;0.77;88.61;98792.19;5009830;28;20026;-74
2021/03/19 02:46:07;;;;;;;33.80;16.90;;;;;;;0.80;88.58;98772.41;5012482;28;20437;-73
2021/03/19 02:48:33;;;;;;;27.63;15.35;;;;;;;0.74;88.73;98776.50;5001106;28;20030;-73
2021/03/19 02:50:59;;;;;;;32.33;16.98;;;;;;;0.80;88.85;98783.06;5011767;28;20022;-74
2021/03/19 02:53:27;;;;;;;33.80;16.90;;;;;;;0.79;89.07;98784.06;5012369;28;20025;-73
2021/03/19 02:55:54;;;;;;;34.17;18.10;;;;;;;0.81;89.00;98782.06;5008682;28;20051;-74
2021/03/19 02:58:20;;;;;;;30.85;16.75;;;;;;;0.91;88.08;98776.75;5007086;28;20480;-73
2021/03/19 03:00:46;;;;;;;34.50;17.98;;;;;;;0.94;88.22;98776.44;5014401;28;20044;-73
2021/03/19 03:03:11;;;;;;;29.48;15.85;;;;;;;0.93;87.96;98772.97;5013731;28;20034;-73
2021/03/19 03:05:36;;;;;;;33.75;16.63;;;;;;;0.97;87.86;98782.34;5014067;28;20034;-73
2021/03/19 03:08:03;;;;;;;29.35;15.73;;;;;;;1.05;87.81;98785.13;5007068;28;20030;-74
2021/03/19 03:10:31;;;;;;;24.95;14.43;;;;;;;1.10;87.02;98787.34;5011399;28;20040;-73
2021/03/19 03:12:56;;;;;;;30.70;15.85;;;;;;;1.02;87.53;98780.09;5033607;28;20438;-73
2021/03/19 03:17:48;;;;;;;24.90;14.38;;;;;;;0.96;87.43;98775.31;5060154;22;20094;-71
2021/03/19 03:20:23;;;;;;;25.38;15.80;;;;;;;0.99;87.14;98796.34;5053604;28;20037;-71
2021/03/19 03:22:48;;;;;;;27.45;14.80;;;;;;;1.00;87.16;98782.06;5014897;28;20103;-71
2021/03/19 03:25:15;;;;;;;30.15;15.57;;;;;;;0.99;87.43;98791.03;5013763;28;20475;-71
2021/03/19 03:27:40;;;;;;;27.92;15.80;;;;;;;0.95;87.87;98768.34;5032814;28;20036;-71
2021/03/19 03:30:15;;;;;;;32.03;15.93;;;;;;;1.00;88.15;98790.06;5035381;28;20025;-71
2021/03/19 03:32:43;;;;;;;32.53;16.35;;;;;;;1.04;88.53;98790.59;5053111;28;20033;-71
2021/03/19 03:35:09;;;;;;;28.83;15.73;;;;;;;1.06;88.56;98792.13;5030104;28;20663;-71
2021/03/19 03:37:34;;;;;;;30.08;15.43;;;;;;;1.05;87.79;98777.16;5038329;28;20082;-71
2021/03/19 03:40:00;;;;;;;23.20;13.35;;;;;;;1.21;86.93;98783.72;5023772;28;20395;-71
2021/03/19 03:42:25;;;;;;;22.08;12.48;;;;;;;1.10;86.76;98776.69;5040450;28;20112;-71
2021/03/19 03:44:50;;;;;;;22.45;14.02;;;;;;;0.99;87.04;98759.06;5034406;28;20102;-71
2021/03/19 03:47:15;;;;;;;24.70;14.30;;;;;;;0.79;87.10;98747.63;5031596;28;20059;-71
2021/03/19 03:49:41;;;;;;;23.90;13.73;;;;;;;1.05;87.32;98785.13;5018766;28;20479;-71
2021/03/19 03:52:06;;;;;;;28.40;14.85;;;;;;;1.15;87.61;98784.25;5018123;28;20548;-71
2021/03/19 03:54:31;;;;;;;23.33;14.05;;;;;;;0.99;87.37;98775.03;5045920;28;20029;-71
2021/03/19 03:56:57;;;;;;;25.00;14.10;;;;;;;1.02;86.84;98784.56;5017659;28;20033;-71
2021/03/19 03:59:22;;;;;;;24.45;14.45;;;;;;;0.98;87.69;98784.03;5032850;28;20033;-71
2021/03/19 04:01:49;;;;;;;30.95;15.40;;;;;;;0.95;87.23;98788.81;5031333;28;20103;-72
2021/03/19 04:04:17;;;;;;;26.98;14.65;;;;;;;0.88;87.45;98767.22;5021345;28;20025;-72
2021/03/19 04:06:43;;;;;;;26.73;15.65;;;;;;;0.86;87.80;98782.50;5014437;28;20036;-72
2021/03/19 04:09:08;;;;;;;26.58;15.57;;;;;;;0.85;88.56;98772.84;5021931;28;20037;-71
2021/03/19 04:11:34;;;;;;;25.80;15.45;;;;;;;0.89;88.46;98779.53;5027699;28;20028;-72
2021/03/19 04:13:59;;;;;;;31.50;15.48;;;;;;;0.90;88.22;98788.41;5044295;28;20040;-71
2021/03/19 04:16:26;;;;;;;25.80;15.05;;;;;;;0.84;88.17;98773.81;5038403;28;20035;-71
2021/03/19 04:18:51;;;;;;;28.02;14.65;;;;;;;0.92;87.74;98781.94;5036273;28;20394;-72
2021/03/19 04:21:16;;;;;;;27.67;15.77;;;;;;;0.95;87.86;98778.16;5050499;28;20025;-71
2021/03/19 04:23:47;;;;;;;33.13;16.45;;;;;;;0.97;88.57;98792.16;5052482;28;20029;-74
2021/03/19 04:26:30;;;;;;;26.73;15.57;;;;;;;1.01;88.64;98788.22;5033773;28;20032;-71
2021/03/19 04:28:56;;;;;;;31.48;15.95;;;;;;;0.96;88.45;98764.66;5043981;28;20051;-71
2021/03/19 04:31:22;;;;;;;29.30;16.55;;;;;;;0.98;88.67;98781.34;5016740;28;20483;-71
2021/03/19 04:33:49;;;;;;;28.10;17.00;;;;;;;0.89;88.96;98763.56;5014660;28;20030;-72
2021/03/19 04:36:26;;;;;;;26.95;16.08;;;;;;;0.91;88.38;98780.25;5045763;28;20036;-72
2021/03/19 04:38:54;;;;;;;30.48;17.23;;;;;;;0.89;88.29;98782.19;5042796;28;20035;-72
2021/03/19 04:41:20;;;;;;;25.60;16.00;;;;;;;0.74;88.74;98768.50;5050063;28;20025;-72
2021/03/19 04:43:47;;;;;;;30.30;16.42;;;;;;;1.02;88.23;98785.44;5015244;28;20025;-72
2021/03/19 04:46:12;;;;;;;28.40;15.13;;;;;;;0.99;87.48;98771.53;5012209;28;20483;-72
2021/03/19 04:48:37;;;;;;;28.38;16.05;;;;;;;1.15;87.40;98784.25;5029800;28;20123;-72
2021/03/19 04:51:03;;;;;;;31.50;15.63;;;;;;;1.03;87.69;98775.59;5030875;28;20021;-72
2021/03/19 04:53:28;;;;;;;27.40;15.23;;;;;;;1.07;86.84;98777.84;5024382;28;20055;-72
2021/03/19 04:55:54;;;;;;;26.92;16.10;;;;;;;0.90;86.85;98775.91;5029931;28;20406;-72
2021/03/19 04:58:19;;;;;;;28.38;16.52;;;;;;;0.80;87.88;98772.41;5025906;28;20028;-72
2021/03/19 05:00:44;;;;;;;25.15;13.68;;;;;;;1.04;87.23;98788.78;5051930;28;20095;-72
2021/03/19 05:03:10;;;;;;;30.58;16.10;;;;;;;0.91;87.84;98779.41;5033808;28;20107;-72
2021/03/19 05:05:35;;;;;;;33.10;16.90;;;;;;;1.04;87.58;98785.28;5031231;28;20099;-73
2021/03/19 05:08:02;;;;;;;24.95;14.60;;;;;;;1.06;87.15;98789.47;5035702;28;20033;-73
2021/03/19 05:10:33;;;;;;;32.78;16.30;;;;;;;1.01;87.76;98783.72;5032988;28;20043;-72
2021/03/19 05:12:59;;;;;;;25.85;15.25;;;;;;;1.12;87.80;98789.88;5026249;28;20033;-72
2021/03/19 05:15:28;;;;;;;28.85;15.18;;;;;;;1.03;88.21;98786.28;5017828;28;20132;-72
2021/03/19 05:17:55;;;;;;;28.63;16.17;;;;;;;1.12;88.33;98793.38;5015545;28;20045;-72
2021/03/19 05:20:21;;;;;;;29.02;16.20;;;;;;;1.17;88.41;98798.28;5052703;28;20425;-72
2021/03/19 05:22:47;;;;;;;28.38;16.60;;;;;;;1.17;88.70;98799.13;5023546;28;20159;-72
2021/03/19 05:25:15;;;;;;;34.30;16.73;;;;;;;1.16;88.81;98797.47;5052070;28;20049;-72
2021/03/19 05:27:42;;;;;;;27.60;16.38;;;;;;;1.18;88.90;98790.16;5026873;28;20132;-72
2021/03/19 05:30:10;;;;;;;31.33;16.80;;;;;;;1.20;88.85;98806.00;5027660;28;20394;-72
2021/03/19 05:32:36;;;;;;;27.63;16.55;;;;;;;1.13;88.94;98803.06;5034542;28;20112;-72
2021/03/19 05:35:01;;;;;;;30.17;17.15;;;;;;;1.14;89.19;98799.41;5035450;28;20159;-72
2021/03/19 05:37:26;;;;;;;27.80;16.35;;;;;;;1.13;89.19;98810.22;5026049;28;20042;-73
2021/03/19 05:39:52;;;;;;;30.30;17.25;;;;;;;1.10;88.84;98806.00;5034453;28;20025;-72
2021/03/19 05:42:24;;;;;;;33.17;17.52;;;;;;;1.20;88.80;98819.31;5033580;28;20032;-73
2021/03/19 05:44:58;;;;;;;29.83;17.15;;;;;;;1.27;88.97;98821.25;5053706;28;20090;-72
2021/03/19 05:47:23;;;;;;;29.40;17.10;;;;;;;1.24;88.53;98807.41;5032323;28;20068;-75
2021/03/19 05:49:53;;;;;;;26.80;15.80;;;;;;;1.23;88.49;98821.69;5034889;28;20609;-72
2021/03/19 05:52:25;;;;;;;33.22;18.17;;;;;;;1.25;88.86;98833.06;5034811;28;20017;-73
2021/03/19 05:54:52;;;;;;;29.50;17.20;;;;;;;1.28;88.88;98827.44;5020809;28;20095;-73
2021/03/19 05:57:30;;;;;;;35.25;18.92;;;;;;;1.29;88.81;98834.47;5031931;28;20018;-73
2021/03/19 05:59:58;;;;;;;31.13;17.55;;;;;;;1.26;88.97;98824.94;5033337;28;20029;-73
2021/03/19 06:02:26;;;;;;;29.40;17.93;;;;;;;1.33;89.05;98838.50;5017147;28;20083;-73
2021/03/19 06:05:13;;;;;;;34.08;19.08;;;;;;;1.27;88.48;98834.59;5000915;28;20030;-73
2021/03/19 06:07:58;;;;;;;29.88;18.33;;;;;;;1.26;89.03;98843.59;5033864;28;20021;-72
2021/03/19 06:10:27;;;;;;;33.90;19.20;;;;;;;1.21;89.15;98835.19;5024628;28;20051;-72
2021/03/19 06:13:04;;;;;;;33.40;18.77;;;;;;;1.31;88.92;98848.50;5030441;28;20085;-72
2021/03/19 06:15:41;;;;;;;31.77;18.80;;;;;;;1.30;89.03;98844.97;5030861;28;20033;-71
2021/03/19 06:18:45;;;;;;;31.25;18.60;;;;;;;1.41;88.64;98843.94;5008827;28;20048;-71
2021/03/19 06:21:10;;;;;;;33.50;18.75;;;;;;;1.36;88.68;98843.53;5006957;28;20175;-72
2021/03/19 06:23:37;;;;;;;30.55;18.88;;;;;;;1.39;88.62;98834.41;5032207;28;20083;-69
2021/03/19 06:26:25;;;;;;;34.15;18.88;;;;;;;1.50;88.49;98839.59;5022186;28;20487;-70
2021/03/19 06:29:04;;;;;;;30.92;17.90;;;;;;;1.49;88.42;98838.75;5022884;28;20060;-69
2021/03/19 06:31:32;;;;;;;34.97;18.30;;;;;;;1.55;88.16;98845.34;5001396;28;20433;-70
2021/03/19 06:34:22;;;;;;;33.40;18.25;;;;;;;1.60;88.14;98847.53;5032951;28;20095;-71
2021/03/19 06:37:00;;;;;;;32.08;18.98;;;;;;;1.61;87.83;98844.75;5047276;28;20033;-76
2021/03/19 06:39:30;;;;;;;32.63;17.83;;;;;;;1.67;87.75;98843.31;5024291;28;20036;-76
2021/03/19 06:42:04;;;;;;;31.50;17.75;;;;;;;1.64;87.50;98849.78;5001344;28;20510;-73
2021/03/19 06:44:30;;;;;;;28.75;16.52;;;;;;;1.65;87.60;98832.81;5013388;28;20036;-73
2021/03/19 06:46:58;;;;;;;29.48;16.45;;;;;;;1.70;87.41;98837.69;5035086;28;20033;-73
2021/03/19 06:49:25;;;;;;;21.98;12.80;;;;;;;1.72;87.40;98836.56;5034399;28;20025;-74
2021/03/19 06:52:20;;;;;;;28.55;16.35;;;;;;;1.75;87.11;98843.44;5028570;28;20029;-74
2021/03/19 06:54:49;;;;;;;26.23;15.30;;;;;;;1.85;87.24;98854.91;5002268;28;20187;-75
2021/03/19 06:57:16;;;;;;;28.85;16.10;;;;;;;1.74;87.02;98847.94;5015972;28;20124;-73
2021/03/19 06:59:50;;;;;;;26.20;15.18;;;;;;;1.77;87.03;98846.78;5034073;28;20444;-76
2021/03/19 07:02:53;;;;;;;25.45;14.38;;;;;;;1.82;86.70;98849.88;5033979;28;20505;-75
2021/03/19 07:05:37;;;;;;;21.85;13.25;;;;;;;1.66;85.49;98849.66;5031890;28;20029;-73
2021/03/19 07:08:27;;;;;;;20.40;12.77;;;;;;;1.73;86.16;98848.09;5032342;28;20064;-74
2021/03/19 07:11:05;;;;;;;30.48;13.68;;;;;;;1.63;85.10;98841.94;5022527;28;20109;-73
2021/03/19 07:13:56;;;;;;;26.30;14.52;;;;;;;1.78;85.62;98845.78;5014228;28;20533;-73
2021/03/19 07:16:40;;;;;;;23.70;14.02;;;;;;;1.67;86.08;98838.81;5013671;28;20026;-74
2021/03/19 07:19:23;;;;;;;22.65;13.82;;;;;;;1.83;86.37;98851.53;5013120;28;20758;-73
2021/03/19 07:22:01;;;;;;;28.83;14.80;;;;;;;1.80;85.83;98846.50;5019810;28;20037;-73
2021/03/19 07:24:29;;;;;;;28.02;15.02;;;;;;;1.78;86.16;98861.81;5031206;28;20503;-72
2021/03/19 07:27:33;;;;;;;24.50;14.70;;;;;;;1.84;86.25;98868.41;5032151;28;20108;-73
2021/03/19 07:30:10;;;;;;;27.27;14.30;;;;;;;1.84;85.94;98863.06;5009454;28;20499;-75
2021/03/19 07:32:45;;;;;;;26.20;13.82;;;;;;;1.97;86.07;98875.09;5015236;28;20033;-73
2021/03/19 07:35:43;;;;;;;26.77;14.07;;;;;;;1.98;85.89;98863.41;5013751;28;20025;-73
2021/03/19 07:38:26;;;;;;;26.40;14.18;;;;;;;2.30;85.28;98867.47;5017886;28;20076;-73
2021/03/19 07:41:21;;;;;;;21.02;12.63;;;;;;;2.61;84.26;98869.81;5030456;28;20052;-76
2021/03/19 07:44:25;;;;;;;23.95;13.13;;;;;;;3.06;83.35;98874.25;5032205;28;20035;-76
2021/03/19 07:47:06;;;;;;;24.42;12.43;;;;;;;3.17;81.35;98873.16;5023861;28;20030;-75
2021/03/19 07:49:46;;;;;;;19.38;12.90;;;;;;;3.26;81.59;98885.63;5028688;28;20447;-73
2021/03/19 07:52:35;;;;;;;20.67;12.05;;;;;;;3.30;81.78;98884.28;5030569;28;20031;-74
2021/03/19 07:55:28;;;;;;;20.60;11.98;;;;;;;3.34;82.32;98880.34;5029844;28;20108;-73
2021/03/19 07:58:32;;;;;;;19.65;11.27;;;;;;;3.33;81.74;98880.47;5030151;28;20459;-75
2021/03/19 08:01:12;;;;;;;17.70;11.18;;;;;;;3.55;81.85;98879.16;4999010;28;20585;-71
2021/03/19 08:03:39;;;;;;;16.02;9.95;;;;;;;3.86;80.36;98887.53;5025044;28;20036;-72
2021/03/19 08:06:13;;;;;;;17.13;10.27;;;;;;;3.89;78.68;98865.81;5039489;28;20035;-72
2021/03/19 08:09:05;;;;;;;15.57;9.90;;;;;;;4.36;77.82;98874.22;5052941;28;20028;-72
2021/03/19 08:11:39;;;;;;;19.38;11.30;;;;;;;4.47;77.55;98865.03;5014368;28;20025;-72
2021/03/19 08:14:25;;;;;;;17.48;9.82;;;;;;;4.86;77.06;98887.75;5030259;28;20030;-72
2021/03/19 08:17:22;;;;;;;18.60;11.32;;;;;;;5.05;76.10;98890.13;5018648;28;20442;-72
2021/03/19 08:20:16;;;;;;;17.77;10.73;;;;;;;5.06;74.91;98886.47;5023287;28;20699;-72
2021/03/19 08:23:00;;;;;;;16.30;10.70;;;;;;;5.08;75.46;98884.41;5023386;28;20033;-72
2021/03/19 08:25:40;;;;;;;18.90;11.23;;;;;;;5.12;74.82;98858.97;5001850;28;20037;-72
2021/03/19 08:28:05;;;;;;;16.15;9.90;;;;;;;5.31;72.43;98895.34;5031183;28;20040;-73
2021/03/19 08:31:15;;;;;;;15.43;10.02;;;;;;;5.10;73.71;98886.94;5021949;28;20051;-73
2021/03/19 08:34:09;;;;;;;13.45;9.18;;;;;;;5.02;73.28;98893.97;5025406;28;20045;-72
2021/03/19 08:36:41;;;;;;;16.30;9.38;;;;;;;4.72;74.61;98894.59;5016789;28;20029;-72
2021/03/19 08:39:33;;;;;;;13.48;8.23;;;;;;;4.69;74.36;98892.22;5013676;28;20446;-69
2021/03/19 08:42:11;;;;;;;13.30;8.02;;;;;;;4.67;75.02;98884.38;5028902;28;20386;-70
2021/03/19 08:44:38;;;;;;;12.73;8.13;;;;;;;4.65;73.63;98888.22;5031832;28;20092;-70
2021/03/19 08:47:33;;;;;;;15.60;9.00;;;;;;;5.12;74.45;98909.09;5032982;28;20032;-69
2021/03/19 08:50:10;;;;;;;13.60;8.35;;;;;;;5.95;71.99;98910.72;5028246;28;20026;-69
2021/03/19 08:53:02;;;;;;;9.65;6.80;;;;;;;9.64;60.54;98904.44;5022403;28;20079;-69
2021/03/19 08:55:30;;;;;;;9.70;6.82;;;;;;;11.38;55.99;98898.84;5017853;28;20064;-70
2021/03/19 08:58:17;;;;;;;8.07;5.85;;;;;;;12.22;53.61;98896.56;5038459;28;20032;-70
2021/03/19 09:00:49;;;;;;;9.13;5.95;;;;;;;10.57;57.75;98898.81;5031996;28;20072;-73
2021/03/19 09:03:38;;;;;;;10.77;7.53;;;;;;;8.91;61.22;98898.31;5015405;28;20029;-77
2021/03/19 09:06:09;;;;;;;10.13;7.15;;;;;;;7.20;64.57;98907.16;5005999;28;20053;-72
2021/03/19 09:08:43;;;;;;;8.68;6.60;;;;;;;6.79;66.39;98911.97;5033992;28;20659;-70
2021/03/19 09:11:14;;;;;;;8.43;5.85;;;;;;;6.29;67.30;98908.66;5035877;28;20026;-70
2021/03/19 09:13:59;;;;;;;10.00;5.82;;;;;;;6.03;68.87;98918.81;5035343;28;20040;-70
2021/03/19 09:16:48;;;;;;;9.48;6.05;;;;;;;5.40;69.12;98923.03;5047442;23;20045;-69
2021/03/19 09:19:32;;;;;;;6.35;4.65;;;;;;;4.98;70.17;98916.78;4998515;28;20117;-70
2021/03/19 09:22:19;;;;;;;10.60;6.10;;;;;;;4.98;70.78;98922.13;5017099;28;20026;-70
2021/03/19 09:25:13;;;;;;;6.55;4.45;;;;;;;5.35;68.74;98926.19;5015622;28;20033;-69
2021/03/19 09:27:42;;;;;;;7.63;5.05;;;;;;;6.02;67.70;98919.78;5001279;28;20116;-71
2021/03/19 09:30:22;;;;;;;8.70;5.20;;;;;;;6.48;66.64;98931.59;4988191;28;20094;-71
2021/03/19 09:32:54;;;;;;;7.65;5.18;;;;;;;6.43;67.30;98917.00;5005060;28;20408;-70
2021/03/19 09:35:46;;;;;;;8.30;5.43;;;;;;;7.80;65.03;98927.00;4985777;28;20102;-76
2021/03/19 09:38:23;;;;;;;8.07;4.97;;;;;;;8.15;63.91;98930.06;4993620;28;20488;-75
2021/03/19 09:40:51;;;;;;;6.68;4.60;;;;;;;8.93;61.61;98919.69;4992351;28;20030;-74
2021/03/19 09:43:34;;;;;;;6.22;4.72;;;;;;;8.34;62.49;98925.97;4988483;28;20088;-74
2021/03/19 09:46:26;;;;;;;7.53;5.05;;;;;;;7.80;63.90;98928.88;4987411;28;20089;-72
2021/03/19 09:48:52;;;;;;;7.05;4.75;;;;;;;6.83;66.57;98928.56;4972605;28;20113;-74
2021/03/19 09:51:28;;;;;;;6.45;4.63;;;;;;;6.34;67.73;98941.22;4996231;28;20080;-74
2021/03/19 09:53:54;;;;;;;5.55;4.25;;;;;;;5.60;69.72;98947.66;4993555;28;20761;-76
2021/03/19 09:56:25;;;;;;;5.75;4.28;;;;;;;5.63;70.31;98947.31;4987049;28;20054;-69
2021/03/19 09:58:54;;;;;;;5.78;3.97;;;;;;;5.96;70.88;98956.22;4995769;28;20033;-74
2021/03/19 10:01:28;;;;;;;6.80;4.30;;;;;;;6.08;70.78;98960.25;4994464;28;20023;-72
2021/03/19 10:04:01;;;;;;;4.72;3.33;;;;;;;6.06;69.49;98959.56;4996418;28;20395;-72
2021/03/19 10:06:28;;;;;;;4.80;3.40;;;;;;;6.86;67.57;98965.84;4992751;28;20154;-70
2021/03/19 10:09:17;;;;;;;5.28;3.80;;;;;;;8.09;63.71;98953.16;4995681;28;20030;-72
2021/03/19 10:12:09;;;;;;;4.82;3.45;;;;;;;7.61;64.49;98970.59;4988468;28;20026;-70
2021/03/19 10:14:37;;;;;;;5.88;4.03;;;;;;;7.19;65.03;98977.28;4991584;28;20038;-73
2021/03/19 10:17:22;;;;;;;5.20;3.37;;;;;;;7.17;67.10;98973.94;4994185;28;20028;-77
2021/03/19 10:20:14;;;;;;;4.90;3.58;;;;;;;7.23;65.86;98979.47;4990558;28;20440;-73
2021/03/19 10:22:50;;;;;;;4.50;3.40;;;;;;;6.40;66.53;98966.56;4998055;28;20030;-78
2021/03/19 10:25:28;;;;;;;5.25;3.90;;;;;;;6.71;66.63;98990.81;4982958;28;20111;-77
2021/03/19 10:27:57;;;;;;;5.78;3.47;;;;;;;6.09;65.87;98990.63;4996010;28;20072;-75
2021/03/19 10:30:37;;;;;;;6.65;4.20;;;;;;;6.45;67.06;98990.22;4995999;28;20492;-75
2021/03/19 10:33:13;;;;;;;4.95;3.63;;;;;;;6.20;66.84;98992.94;4975225;28;20499;-75
2021/03/19 10:35:45;;;;;;;5.45;3.78;;;;;;;5.97;67.91;98975.84;4994016;28;20516;-75
2021/03/19 10:38:19;;;;;;;8.43;4.38;;;;;;;6.20;68.72;98992.94;4984099;28;20192;-75
2021/03/19 10:40:50;;;;;;;5.95;4.38;;;;;;;6.48;67.48;98981.81;4990777;28;20133;-75
2021/03/19 10:43:28;;;;;;;6.85;4.35;;;;;;;6.91;66.58;98987.69;4994878;28;20097;-74
2021/03/19 10:46:00;;;;;;;6.18;4.57;;;;;;;6.66;67.81;98990.50;4992188;28;20026;-72
2021/03/19 10:48:49;;;;;;;6.97;4.80;;;;;;;6.11;69.29;98984.06;4992369;28;20037;-76
2021/03/19 10:51:47;;;;;;;6.45;4.60;;;;;;;6.59;67.45;98997.56;4982471;28;20018;-74
2021/03/19 10:54:24;;;;;;;7.30;4.78;;;;;;;6.28;68.69;98994.78;4921373;28;20500;-75
2021/03/19 10:57:02;;;;;;;8.07;5.32;;;;;;;5.65;69.34;98993.63;4990910;28;20034;-73
2021/03/19 10:59:30;;;;;;;8.52;5.47;;;;;;;5.18;69.87;99002.28;4993308;28;20023;-73
2021/03/19 11:02:18;;;;;;;10.45;6.20;;;;;;;4.78;70.78;99009.19;4978013;28;20404;-74
2021/03/19 11:04:54;;;;;;;9.98;5.82;;;;;;;4.98;71.91;99010.63;4995154;28;20042;-74
2021/03/19 11:07:22;;;;;;;9.85;6.00;;;;;;;5.15;70.31;99013.34;4994253;28;20026;-74
2021/03/19 11:10:24;;;;;;;9.50;5.65;;;;;;;5.10;70.97;99015.66;4994127;28;20044;-75
2021/03/19 11:13:09;;;;;;;12.00;6.80;;;;;;;4.94;70.21;99001.22;4992779;28;20033;-75
2021/03/19 11:15:34;;;;;;;11.85;6.72;;;;;;;5.13;70.55;99015.34;4995275;28;20034;-73
2021/03/19 11:18:24;;;;;;;13.55;8.23;;;;;;;4.57;71.32;99018.47;4998201;28;20511;-72
2021/03/19 11:20:53;;;;;;;13.75;7.95;;;;;;;4.45;73.01;99024.25;4978792;28;20069;-76
2021/03/19 11:23:23;;;;;;;;;;;;;;;4.37;72.80;99025.88;4994322;28;20026;-75
2021/03/19 11:25:51;;;;;;;16.00;8.07;;;;;;;4.29;73.75;99022.31;4992934;28;19913;-73
2021/03/19 11:28:19;;;;;;;14.40;7.82;;;;;;;4.31;72.38;99028.38;4995956;28;20034;-73
2021/03/19 11:30:45;;;;;;;14.43;8.02;;;;;;;4.05;70.99;99018.50;4996670;28;20022;-73
2021/03/19 11:33:16;;;;;;;17.15;8.75;;;;;;;4.23;70.34;99017.63;4978997;28;20033;-70
2021/03/19 11:35:41;;;;;;;15.30;8.35;;;;;;;4.35;70.70;99021.72;4992390;28;20514;-76
2021/03/19 11:38:30;;;;;;;14.13;7.88;;;;;;;4.49;69.70;99018.44;4994720;28;20022;-71
2021/03/19 11:40:56;;;;;;;16.27;8.07;;;;;;;4.91;69.11;99027.50;4981400;28;20026;-69
2021/03/19 11:43:21;;;;;;;14.63;8.15;;;;;;;5.54;67.49;99031.53;5015827;28;20037;-75
2021/03/19 11:45:47;;;;;;;13.93;8.18;;;;;;;6.12;65.86;99033.25;5005702;28;20388;-75
2021/03/19 11:48:17;;;;;;;15.00;8.35;;;;;;;6.44;65.47;99039.59;5012436;28;20026;-75
2021/03/19 11:50:48;;;;;;;16.17;8.10;;;;;;;6.04;66.22;99047.53;5012579;28;20037;-75
2021/03/19 11:53:19;;;;;;;15.05;8.48;;;;;;;5.58;66.95;99059.72;4996286;28;20034;-75
2021/03/19 11:55:49;;;;;;;15.65;8.50;;;;;;;5.19;70.66;99057.63;5002546;28;20022;-75
2021/03/19 11:58:18;;;;;;;14.73;7.95;;;;;;;4.88;70.89;99058.16;4997882;28;20026;-75
2021/03/19 12:00:44;;;;;;;15.15;8.23;;;;;;;4.53;72.01;99054.63;5013993;28;20026;-75
2021/03/19 12:03:23;;;;;;;17.80;9.63;;;;;;;4.71;71.37;99043.81;5014365;28;20029;-75
2021/03/19 12:05:49;;;;;;;17.15;9.25;;;;;;;4.64;71.34;99060.69;4976331;28;20432;-75